GENERAL EDWARD LAWRENCE LOGAN INTL

KBOS (BOS)
Boston, Massachusetts
Towered

Vatsim Metar:
KBOS 232154Z 22013KT 10SM FEW040 SCT250 25/18 A2975 RMK AO2 SLP075 T02500178

GENERAL EDWARD LAWRENCE LOGAN INTL ATC

BOS_TWR - 128.800 - Luis Seoane
Aeroparque Tower/Torre Procedural Tower GRP 4.6 - Service for SABE/SADF/SADO/SADP from GND to FL055 Providing PDC clearences via Hoppie CPDLC //argentina.vatsur.org
BOS_GND - 121.900 - Joshua Claughton
Online until 9pm ET (0100z) Boston Virtual ARTCC is an integrated pilot and ATC community Please read our Airspace Briefing Guide at https //bvartcc.com/ABG Visit bvartcc.com/welcome for more information

Traffic

Inbound:
Ident
Type
Name
ETA
Phase
ACA8663
A320
Alex Bagz KATL
Deplaning
UAL1298
A320
Joseph Mineo KIAH
22:43 Z
Descent
AAL13
B763
Adam EGCC
22:53 Z
Cruse
ACA733
A320
Zach Higgins CYYZ
22:54 Z
Cruse
WZZ357
A320
Axel Hansen ENBR
Unknown
WAT4128
A320
Jimmy Guerra KORF
Boarding
DAL1531
A339
Markino MKJS
00:35 Z
Cruse
JBU1388
A21N
Matt Elliott KBED
01:37 Z
Cruse

Outbound:
Ident
Type
Name
Destination
Phase
AAL1106
A320
K J KBOS
KLGA
Boarding
DAL617
B752
Len TLV
CYYZ
Boarding
WAT2632
B772
Steve Martin KMIA
KATL
Climb
N333XP
C750
Adam KTEB
KDCA
Boarding
BRK198
A320
Brian M KBOS
KPHL
Climb